Hauptseite
METAR-TAF:

METAR-TAF

Flughäfen :

Scatsta, Shetlandinseln, Schottland

Scatsta Airport

Breite: 60-26N, Länge: 001-18W, Höhe: 22 m

Beobachtung

Neuester Wetterbericht von vor 33 Minuten, um 00:50 UTC
Wind 10 kt aus Süd/Südost
Temperatur 4°C
Luftfeuchtigkeit 70%
Luftdruck 1032 hPa
Sichtweite 10 km oder mehr

METAR: EGPM 250050Z AUTO 16010KT 9999 BKN035/// 04/M01 Q1032

Zeit: 01:23 (01:23 UTC)

Prognose

Neuester Wetterbericht von vor 11 Stunden und 25 Minuten, um 13:58 UTC
Gültige Prognose vom 24 um 15 UTC bis 24 um 21 UTC
Wind 15 kt aus Süd/Südost
Sichtweite 10 km oder mehr
Aufgelockert bewölkt in der Höhe von 2400 ft
Zeitweise
vom 24 um 15 UTC bis 24 um 17 UTC
Wind 20 kt aus Süd/Südost, Böen bis zu 30 kt

TAF: EGPM 241358Z 2415/2421 16015KT 9999 SCT024 TEMPO 2415/2417 16020G30KT

Wetterbeobachtungen und Prognosen von mehr als 4000 Flughäfen (METAR und TAF Bericht).

Die verfügbaren Stationen werden durch gelbe und rote Markierungen auf der Karte dargestellt.

Führen Sie die Maus auf sie, um den Namen der Station zu sehen.

Darauf klicken, um die Beobachtung von Wetterbeobachtungen und Prognosen zu sehen.

Um die Karte zu ändern : klicken Sie auf den grünen Tasten mit einem schwarzen Kreuz Zum Vergrößern, auf den grünen Button mit einem Gedankenstrich zu verkleinern, oder auf die grünen Pfeile für benachbarte Karten.


METAR-TAF: